createdAt,value
2022-10-23T00:05:12.404Z,37.17
2022-10-23T00:10:34.218Z,31.95
2022-10-23T00:15:56.047Z,30.70
2022-10-23T00:21:17.952Z,32.97
2022-10-23T00:26:39.780Z,33.13
2022-10-23T00:32:01.617Z,29.83
2022-10-23T00:37:23.463Z,30.13
2022-10-23T00:42:45.458Z,31.90
2022-10-23T00:48:07.431Z,30.48
2022-10-23T00:53:29.285Z,29.75
2022-10-23T00:58:51.123Z,30.75
2022-10-23T01:04:12.923Z,34.00
2022-10-23T01:09:34.735Z,31.40
2022-10-23T01:14:56.547Z,34.13
2022-10-23T01:20:18.369Z,28.80
2022-10-23T01:25:40.181Z,31.73
2022-10-23T01:31:02.006Z,33.55
2022-10-23T01:36:23.845Z,33.97
2022-10-23T01:41:45.657Z,29.98
2022-10-23T01:47:07.477Z,29.17
2022-10-23T01:52:29.320Z,32.90
2022-10-23T01:57:51.122Z,31.08
2022-10-23T02:03:12.931Z,30.20
2022-10-23T02:08:34.737Z,29.27
2022-10-23T02:13:56.559Z,28.92
2022-10-23T02:19:18.397Z,28.42
2022-10-23T02:24:40.202Z,27.77
2022-10-23T02:30:02.017Z,30.75
2022-10-23T02:35:23.851Z,27.20
2022-10-23T02:40:45.628Z,32.25
2022-10-23T02:46:07.440Z,28.52
2022-10-23T02:51:29.272Z,32.50
2022-10-23T02:56:51.107Z,27.88
2022-10-23T03:02:13.006Z,24.67
2022-10-23T03:07:34.944Z,27.42
2022-10-23T03:12:56.756Z,29.80
2022-10-23T03:18:18.602Z,27.00
2022-10-23T03:23:40.447Z,30.98
2022-10-23T03:29:02.279Z,26.45
2022-10-23T03:34:24.098Z,23.67
2022-10-23T03:39:45.939Z,25.30
2022-10-23T03:45:07.767Z,28.73
2022-10-23T03:50:29.599Z,26.05
2022-10-23T03:55:51.419Z,28.45
2022-10-23T04:01:13.287Z,28.70
2022-10-23T04:06:35.151Z,24.55
2022-10-23T04:11:57.024Z,24.80
2022-10-23T04:17:18.874Z,32.05
2022-10-23T04:22:40.933Z,24.05
2022-10-23T04:28:02.936Z,23.23
2022-10-23T04:33:24.742Z,24.70
2022-10-23T04:38:46.573Z,22.30
2022-10-23T04:44:08.378Z,27.23
2022-10-23T04:49:30.173Z,27.20
2022-10-23T04:54:51.990Z,24.77
2022-10-23T05:00:13.818Z,23.20
2022-10-23T05:05:35.627Z,24.42
2022-10-23T05:10:57.473Z,23.98
2022-10-23T05:16:19.305Z,26.20
2022-10-23T05:21:41.124Z,25.80
2022-10-23T05:27:02.955Z,23.67
2022-10-23T05:32:24.790Z,28.48
2022-10-23T05:37:46.626Z,27.08
2022-10-23T05:43:08.446Z,21.90
2022-10-23T05:48:34.759Z,30.95
2022-10-23T05:53:57.120Z,27.08
2022-10-23T05:59:21.994Z,29.05
2022-10-23T06:04:44.968Z,36.42
2022-10-23T06:10:06.782Z,32.00
2022-10-23T06:15:28.635Z,28.05
2022-10-23T06:20:50.466Z,31.58
2022-10-23T06:26:12.312Z,34.58
2022-10-23T06:31:34.132Z,33.58
2022-10-23T06:36:55.947Z,32.28
2022-10-23T06:42:17.757Z,37.55
2022-10-23T06:47:39.706Z,39.22
2022-10-23T06:53:01.698Z,38.90
2022-10-23T06:58:23.501Z,39.17
2022-10-23T07:03:45.311Z,47.72
2022-10-23T07:09:07.143Z,60.75
2022-10-23T07:14:28.957Z,50.65
2022-10-23T07:19:50.786Z,52.55
2022-10-23T07:25:12.590Z,51.03
2022-10-23T07:30:34.390Z,58.25
2022-10-23T07:35:56.214Z,43.00
2022-10-23T07:41:18.031Z,34.10
2022-10-23T07:46:39.849Z,28.13
2022-10-23T07:57:28.430Z,17.92
2022-10-23T08:02:50.261Z,17.50
2022-10-23T08:08:12.056Z,18.73
2022-10-23T08:13:33.874Z,16.10
2022-10-23T08:18:55.690Z,14.07
2022-10-23T08:24:17.511Z,13.40
2022-10-23T08:29:39.327Z,14.40
2022-10-23T08:35:01.149Z,12.25
2022-10-23T08:40:22.964Z,10.05
2022-10-23T08:45:44.778Z,13.13
2022-10-23T08:51:06.620Z,12.43
2022-10-23T08:56:28.463Z,9.68
2022-10-23T09:01:50.413Z,12.63
2022-10-23T09:07:12.259Z,10.23
2022-10-23T09:12:34.106Z,9.32
2022-10-23T09:17:55.921Z,10.48
2022-10-23T09:23:17.739Z,10.38
2022-10-23T09:28:39.552Z,8.32
2022-10-23T09:34:01.376Z,6.70
2022-10-23T09:39:23.196Z,7.90
2022-10-23T09:44:45.021Z,8.30
2022-10-23T09:50:06.829Z,6.78
2022-10-23T09:55:28.679Z,8.32
2022-10-23T10:00:53.408Z,8.75
2022-10-23T10:06:17.172Z,6.78
2022-10-23T10:11:39.010Z,11.38
2022-10-23T10:17:00.833Z,6.97
2022-10-23T10:22:22.667Z,9.15
2022-10-23T10:27:44.732Z,8.30
2022-10-23T10:33:06.661Z,6.72
2022-10-23T10:38:28.451Z,6.30
2022-10-23T10:43:50.272Z,7.55
2022-10-23T10:49:12.071Z,15.10
2022-10-23T10:54:33.878Z,8.93
2022-10-23T10:59:55.676Z,6.47
2022-10-23T11:05:17.487Z,7.13
2022-10-23T11:10:39.293Z,9.00
2022-10-23T11:16:01.129Z,7.93
2022-10-23T11:21:22.927Z,12.68
2022-10-23T11:26:44.731Z,7.90
2022-10-23T11:32:06.539Z,6.78
2022-10-23T11:37:28.351Z,6.05
2022-10-23T11:42:50.173Z,9.57
2022-10-23T11:48:11.982Z,9.07
2022-10-23T11:53:33.798Z,15.30
2022-10-23T11:58:55.611Z,13.65
2022-10-23T12:04:17.419Z,9.13
2022-10-23T12:09:39.218Z,9.65
2022-10-23T12:15:01.033Z,13.73
2022-10-23T12:20:22.836Z,8.40
2022-10-23T12:25:44.653Z,9.85
2022-10-23T12:31:06.470Z,9.65
2022-10-23T12:36:28.287Z,9.30
2022-10-23T12:41:50.083Z,8.50
2022-10-23T12:47:11.905Z,9.77
2022-10-23T12:52:33.721Z,9.35
2022-10-23T12:57:55.526Z,8.38
2022-10-23T13:03:17.344Z,9.40
2022-10-23T13:08:39.175Z,8.52
2022-10-23T13:14:00.989Z,8.00
2022-10-23T13:19:22.847Z,9.10
2022-10-23T13:24:44.639Z,7.03
2022-10-23T13:30:08.479Z,8.23
2022-10-23T13:35:32.594Z,7.68
2022-10-23T13:40:54.403Z,7.18
2022-10-23T13:46:16.214Z,7.47
2022-10-23T13:51:40.275Z,6.20
2022-10-23T13:57:04.461Z,7.07
2022-10-23T14:02:26.383Z,7.03
2022-10-23T14:07:48.270Z,6.13
2022-10-23T14:13:10.066Z,4.95
2022-10-23T14:18:31.877Z,6.15
2022-10-23T14:23:53.669Z,7.05
2022-10-23T14:29:23.090Z,7.03
2022-10-23T14:34:46.047Z,6.35
2022-10-23T14:40:07.868Z,6.05
2022-10-23T14:45:29.689Z,5.60
2022-10-23T14:50:51.563Z,4.80
2022-10-23T14:56:13.372Z,5.57
2022-10-23T15:01:35.235Z,5.28
2022-10-23T15:06:57.246Z,5.65
2022-10-23T15:12:19.053Z,5.32
2022-10-23T15:17:40.863Z,5.88
2022-10-23T15:23:02.683Z,11.93
2022-10-23T15:28:24.485Z,9.80
2022-10-23T15:33:46.306Z,19.92
2022-10-23T15:39:08.123Z,9.88
2022-10-23T15:44:29.933Z,8.30
2022-10-23T15:49:51.746Z,10.38
2022-10-23T15:55:13.561Z,8.52
2022-10-23T16:00:35.980Z,10.02
2022-10-23T16:05:57.954Z,13.85
2022-10-23T16:11:19.793Z,11.07
2022-10-23T16:16:41.609Z,10.20
2022-10-23T16:22:03.654Z,11.93
2022-10-23T16:27:25.467Z,14.27
2022-10-23T16:32:47.304Z,11.50
2022-10-23T16:38:09.140Z,20.92
2022-10-23T16:43:30.952Z,21.63
2022-10-23T16:48:52.765Z,18.42
2022-10-23T16:54:14.625Z,18.73
2022-10-23T16:59:36.431Z,19.77
2022-10-23T17:04:58.267Z,15.82
2022-10-23T17:10:20.103Z,23.58
2022-10-23T17:15:41.958Z,21.80
2022-10-23T17:21:03.795Z,23.80
2022-10-23T17:26:25.645Z,29.90
2022-10-23T17:31:47.468Z,24.30
2022-10-23T17:37:09.281Z,21.48
2022-10-23T17:42:31.092Z,17.27
2022-10-23T17:47:52.894Z,16.90
2022-10-23T17:53:14.717Z,23.98
2022-10-23T17:58:36.549Z,25.00
2022-10-23T18:03:58.368Z,26.83
2022-10-23T18:09:20.182Z,20.73
2022-10-23T18:14:42.010Z,20.77
2022-10-23T18:20:03.829Z,28.48
2022-10-23T18:25:25.690Z,21.25
2022-10-23T18:30:48.173Z,22.83
2022-10-23T18:36:10.249Z,23.08
2022-10-23T18:41:32.186Z,23.27
2022-10-23T18:46:54.015Z,21.52
2022-10-23T18:52:15.822Z,20.48
2022-10-23T18:57:37.648Z,20.20
2022-10-23T19:02:59.508Z,22.90
2022-10-23T19:08:21.316Z,34.65
2022-10-23T19:13:43.125Z,24.15
2022-10-23T19:19:04.957Z,18.35
2022-10-23T19:24:26.771Z,30.23
2022-10-23T19:29:48.616Z,28.35
2022-10-23T19:35:10.481Z,20.55
2022-10-23T19:40:32.320Z,16.13
2022-10-23T19:45:54.118Z,17.13
2022-10-23T19:51:15.938Z,17.60
2022-10-23T19:56:37.738Z,19.15
2022-10-23T20:01:59.690Z,17.83
2022-10-23T20:07:21.707Z,17.73
2022-10-23T20:12:47.464Z,13.90
2022-10-23T20:18:18.434Z,13.00
2022-10-23T20:23:40.241Z,15.60
2022-10-23T20:29:02.077Z,13.90
2022-10-23T20:34:23.888Z,16.58
2022-10-23T20:39:45.716Z,15.48
2022-10-23T20:45:07.542Z,12.70
2022-10-23T20:50:29.376Z,13.80
2022-10-23T20:55:51.185Z,16.02
2022-10-23T21:01:13.132Z,13.48
2022-10-23T21:06:46.112Z,13.88
2022-10-23T21:12:16.787Z,17.83
2022-10-23T21:17:38.601Z,15.13
2022-10-23T21:23:00.457Z,15.10
2022-10-23T21:28:22.279Z,13.80
2022-10-23T21:33:44.083Z,14.93
2022-10-23T21:39:05.882Z,19.27
2022-10-23T21:44:27.706Z,15.60
2022-10-23T21:49:51.650Z,18.33
2022-10-23T21:55:13.461Z,14.32
2022-10-23T22:00:35.294Z,15.07
2022-10-23T22:05:57.095Z,15.05
2022-10-23T22:11:18.901Z,13.60
2022-10-23T22:16:40.718Z,16.27
2022-10-23T22:22:02.526Z,15.52
2022-10-23T22:27:24.347Z,14.35
2022-10-23T22:32:46.359Z,17.63
2022-10-23T22:38:08.410Z,11.63
2022-10-23T22:43:30.230Z,16.85
2022-10-23T22:48:52.031Z,15.73
2022-10-23T22:54:13.830Z,16.70
2022-10-23T22:59:35.635Z,17.13
2022-10-23T23:04:57.474Z,14.32
2022-10-23T23:10:19.304Z,15.00
2022-10-23T23:15:41.130Z,14.60
2022-10-23T23:21:02.971Z,20.60
2022-10-23T23:26:24.812Z,18.77
2022-10-23T23:31:46.625Z,18.50
2022-10-23T23:37:08.436Z,18.15
2022-10-23T23:42:30.256Z,17.90
2022-10-23T23:47:52.065Z,17.42
2022-10-23T23:53:13.895Z,19.20
2022-10-23T23:58:35.731Z,17.90
